Tropical Cyclones
[Index]
Main Index Home Page Stock Weather Photos Extreme Storms Discussion Storm News and Storm Chasing Reports Tropical Cyclones / Hurricanes / Typhoons Weather Data and Links Wild Fires / Bushfires Weather Observation Techniques Weather Picture Catalogue Tornado Pictures and Reports Stock Video Footage and DVDs for sale
Season 1999-2000 Tropical Cyclone PAUL Track Map
Season 1999-2000 Summaries (Operational Data): [AU] [SIO] [SPAC] [SH]
<<- Previous TC | 1999-2000 Season | Next TC ->>

click for intensity scale information  Lat/long Grid: Show Hide

 Date Labels: Show Hide

Operational Tropical Cyclone Data : JTWC Advisories

Name: PAUL
Number: 0024

13 Apr 2000 01:00 UTC to 22 Apr 2000 04:00 UTC

    date/time    lat    long     hPa   cat  kts
2000-04-13 01   13.8   113.7    1002         30          
2000-04-13 04   14.0   113.1    1000         30          
2000-04-13 10   14.6   112.0     995    1    45          
2000-04-13 16   14.9   110.5     985    2    50          
2000-04-13 22   15.0   109.6     985    2    50          
2000-04-14 04   15.0   108.3     980    2    55          
2000-04-14 10   15.1   107.0     960    3    70          
2000-04-14 16   15.0   106.2     955    3    75          
2000-04-14 22   14.6   105.2     935    4    95          
2000-04-15 04   14.2   104.3     925    4   100          
2000-04-15 10   14.1   103.0     920    5   110          
2000-04-15 16   13.7   102.1     920    5   110          
2000-04-15 22   13.6   101.2     920    5   110          
2000-04-16 04   13.6   100.8     920    5   110          
2000-04-16 10   13.6   100.0     920    5   110          
2000-04-16 16   13.7    98.9     920    5   110          
2000-04-16 22   13.9    98.1     920    5   110          
2000-04-17 04   14.0    97.7     930    4   100          
2000-04-17 10   14.4    97.2     930    4   100          
2000-04-17 16   14.4    96.6     935    4    95          
2000-04-17 22   14.6    96.0     940    4    90          
2000-04-18 04   14.6    95.4     960    3    75          
2000-04-18 10   14.7    95.2     965    3    70          
2000-04-18 16   14.8    95.1     965    3    70          
2000-04-18 22   15.0    95.0     965    3    70          
2000-04-19 04   14.9    94.8     965    3    70          
2000-04-19 10   14.9    94.8     975    2    55          
2000-04-19 16   14.9    94.6     975    2    55          
2000-04-19 22   14.9    94.4     985    1    45          
2000-04-20 04   14.7    94.3     995    1    40          
2000-04-20 12   14.9    93.8                             
2000-04-21 00   15.0    92.9                             
2000-04-21 04   14.8    92.9     999         30          
2000-04-21 12   15.3    92.1                             
2000-04-22 04   15.6    90.0    1000         25          
Winds are 10-min average.

Tropical cyclone tracks developed by Michael Bath using operational warnings and advisories and Google Maps.


[Australian Severe Weather index] [Copyright Notice] [Email Contacts] [Search This Site] [Privacy Policy]
Document: tropical_cyclone_paul.htm Updated: 28 May 2013